createdAt,value
2023-01-20T00:01:26.105Z,9.69
2023-01-20T00:03:54.448Z,9.35
2023-01-20T00:06:22.725Z,9.27
2023-01-20T00:08:51.682Z,9.39
2023-01-20T00:11:19.533Z,9.50
2023-01-20T00:13:47.308Z,9.22
2023-01-20T00:16:15.201Z,9.70
2023-01-20T00:18:42.939Z,9.53
2023-01-20T00:21:12.117Z,9.32
2023-01-20T00:23:40.306Z,9.06
2023-01-20T00:26:09.944Z,8.59
2023-01-20T00:28:37.672Z,8.46
2023-01-20T00:31:11.752Z,8.10
2023-01-20T00:33:39.563Z,8.06
2023-01-20T00:36:07.440Z,8.09
2023-01-20T00:38:35.192Z,7.86
2023-01-20T00:41:03.093Z,8.14
2023-01-20T00:43:30.858Z,8.31
2023-01-20T00:45:58.603Z,8.44
2023-01-20T00:48:26.301Z,8.95
2023-01-20T00:50:54.101Z,8.61
2023-01-20T00:53:21.859Z,8.42
2023-01-20T00:55:49.591Z,8.95
2023-01-20T00:58:17.326Z,8.94
2023-01-20T01:00:48.818Z,8.79
2023-01-20T01:03:16.642Z,9.18
2023-01-20T01:05:44.648Z,8.94
2023-01-20T01:08:12.464Z,8.91
2023-01-20T01:10:40.752Z,8.28
2023-01-20T01:13:08.596Z,7.95
2023-01-20T01:15:36.521Z,7.64
2023-01-20T01:18:04.294Z,6.92
2023-01-20T01:20:32.095Z,5.84
2023-01-20T01:22:59.846Z,4.99
2023-01-20T01:25:27.610Z,5.12
2023-01-20T01:27:55.267Z,4.98
2023-01-20T01:30:22.998Z,5.23
2023-01-20T01:32:50.686Z,5.48
2023-01-20T01:35:18.411Z,5.43
2023-01-20T01:37:46.066Z,5.71
2023-01-20T01:40:13.799Z,5.04
2023-01-20T01:42:42.861Z,5.01
2023-01-20T01:45:10.827Z,4.76
2023-01-20T01:47:39.692Z,4.52
2023-01-20T01:50:08.179Z,4.67
2023-01-20T01:52:36.081Z,4.74
2023-01-20T01:55:03.952Z,4.73
2023-01-20T01:57:31.664Z,4.82
2023-01-20T01:59:59.354Z,4.80
2023-01-20T02:02:27.159Z,4.99
2023-01-20T02:04:54.838Z,4.89
2023-01-20T02:07:22.567Z,4.86
2023-01-20T02:09:50.245Z,5.08
2023-01-20T02:12:19.069Z,5.17
2023-01-20T02:14:48.847Z,5.41
2023-01-20T02:17:32.960Z,5.30
2023-01-20T02:20:21.942Z,5.98
2023-01-20T02:22:59.117Z,5.59
2023-01-20T02:25:48.035Z,5.80
2023-01-20T02:28:15.659Z,6.17
2023-01-20T02:31:01.758Z,5.81
2023-01-20T02:33:35.573Z,6.07
2023-01-20T02:36:07.064Z,6.09
2023-01-20T02:39:00.996Z,6.41
2023-01-20T02:41:41.842Z,5.99
2023-01-20T02:44:41.832Z,6.13
2023-01-20T02:47:17.357Z,6.81
2023-01-20T02:49:56.541Z,6.95
2023-01-20T02:52:26.273Z,6.99
2023-01-20T02:54:56.575Z,7.18
2023-01-20T02:57:27.778Z,7.37
2023-01-20T02:59:57.077Z,7.25
2023-01-20T03:02:26.338Z,7.09
2023-01-20T03:05:05.372Z,6.45
2023-01-20T03:07:33.347Z,6.08
2023-01-20T03:10:02.591Z,6.01
2023-01-20T03:12:33.662Z,5.94
2023-01-20T03:15:01.378Z,6.33
2023-01-20T03:17:29.042Z,6.93
2023-01-20T03:19:56.831Z,7.28
2023-01-20T03:22:24.536Z,7.45
2023-01-20T03:24:52.254Z,7.82
2023-01-20T03:27:19.925Z,7.77
2023-01-20T03:29:47.699Z,7.88
2023-01-20T03:32:15.414Z,8.31
2023-01-20T03:34:43.221Z,8.47
2023-01-20T03:37:11.317Z,8.21
2023-01-20T03:39:39.973Z,8.18
2023-01-20T03:42:13.949Z,8.37
2023-01-20T03:45:01.778Z,7.98
2023-01-20T03:47:43.043Z,7.55
2023-01-20T03:50:41.748Z,7.98
2023-01-20T03:53:34.654Z,8.29
2023-01-20T03:56:11.790Z,8.19
2023-01-20T03:58:40.960Z,6.98
2023-01-20T04:01:18.669Z,6.31
2023-01-20T04:03:48.582Z,6.18
2023-01-20T04:06:17.004Z,6.91
2023-01-20T04:08:47.546Z,6.61
2023-01-20T04:11:15.383Z,6.91
2023-01-20T04:13:43.097Z,6.03
2023-01-20T04:16:13.739Z,5.89
2023-01-20T04:18:42.505Z,6.17
2023-01-20T04:21:13.285Z,6.38
2023-01-20T04:23:44.192Z,6.73
2023-01-20T04:26:11.963Z,7.53
2023-01-20T04:28:39.649Z,7.70
2023-01-20T04:31:11.366Z,7.96
2023-01-20T04:33:45.962Z,6.58
2023-01-20T04:36:13.689Z,6.92
2023-01-20T04:38:41.443Z,6.96
2023-01-20T04:41:11.431Z,6.85
2023-01-20T04:43:39.102Z,7.06
2023-01-20T04:46:06.927Z,7.32
2023-01-20T04:48:34.608Z,6.63
2023-01-20T04:51:04.836Z,7.01
2023-01-20T04:53:32.541Z,7.27
2023-01-20T04:56:00.273Z,7.54
2023-01-20T04:58:27.939Z,7.75
2023-01-20T05:00:55.707Z,7.82
2023-01-20T05:03:23.394Z,7.56
2023-01-20T05:05:54.587Z,7.33
2023-01-20T05:08:22.401Z,7.07
2023-01-20T05:10:50.069Z,7.23
2023-01-20T05:13:17.799Z,7.16
2023-01-20T05:15:45.639Z,7.73
2023-01-20T05:18:13.324Z,7.06
2023-01-20T05:20:41.121Z,6.15
2023-01-20T05:23:08.797Z,6.07
2023-01-20T05:25:36.543Z,6.30
2023-01-20T05:28:04.401Z,5.63
2023-01-20T05:30:32.192Z,5.83
2023-01-20T05:32:59.888Z,5.78
2023-01-20T05:35:27.667Z,6.39
2023-01-20T05:37:55.601Z,6.63
2023-01-20T05:40:23.377Z,6.17
2023-01-20T05:42:51.099Z,6.35
2023-01-20T05:45:18.847Z,5.79
2023-01-20T05:47:46.513Z,5.86
2023-01-20T05:50:14.248Z,6.38
2023-01-20T05:52:41.948Z,6.32
2023-01-20T05:55:09.881Z,6.29
2023-01-20T05:57:37.592Z,6.04
2023-01-20T06:00:08.608Z,6.80
2023-01-20T06:02:36.541Z,6.86
2023-01-20T06:05:04.973Z,7.86
2023-01-20T06:07:32.640Z,6.88
2023-01-20T06:10:00.491Z,6.88
2023-01-20T06:12:28.234Z,7.49
2023-01-20T06:14:55.958Z,7.51
2023-01-20T06:17:23.629Z,6.87
2023-01-20T06:19:51.399Z,6.64
2023-01-20T06:22:21.015Z,6.13
2023-01-20T06:24:48.796Z,6.71
2023-01-20T06:27:16.495Z,7.50
2023-01-20T06:29:44.212Z,7.69
2023-01-20T06:32:12.101Z,7.29
2023-01-20T06:34:39.756Z,7.98
2023-01-20T06:37:07.487Z,8.08
2023-01-20T06:39:35.163Z,7.54
2023-01-20T06:42:02.917Z,7.90
2023-01-20T06:44:30.771Z,7.44
2023-01-20T06:46:58.507Z,6.75
2023-01-20T06:49:26.331Z,6.89
2023-01-20T06:51:54.163Z,7.16
2023-01-20T06:54:21.948Z,7.25
2023-01-20T06:56:49.694Z,7.48
2023-01-20T06:59:17.397Z,7.18
2023-01-20T07:01:45.195Z,7.85
2023-01-20T07:04:15.965Z,7.79
2023-01-20T07:06:43.680Z,7.45
2023-01-20T07:09:12.131Z,7.73
2023-01-20T07:11:40.012Z,8.28
2023-01-20T07:14:07.709Z,7.68
2023-01-20T07:16:35.491Z,8.37
2023-01-20T07:19:03.250Z,8.58
2023-01-20T07:21:31.208Z,8.52
2023-01-20T07:24:02.416Z,8.37
2023-01-20T07:26:30.286Z,8.11
2023-01-20T07:29:00.565Z,8.32
2023-01-20T07:31:32.896Z,8.34
2023-01-20T07:34:03.528Z,8.05
2023-01-20T07:36:31.918Z,8.22
2023-01-20T07:38:59.645Z,8.72
2023-01-20T07:41:27.394Z,7.73
2023-01-20T07:43:55.072Z,8.10
2023-01-20T07:46:22.814Z,8.39
2023-01-20T07:48:50.542Z,8.41
2023-01-20T07:51:18.318Z,8.13
2023-01-20T07:53:47.593Z,8.54
2023-01-20T07:56:23.003Z,8.69
2023-01-20T07:58:51.451Z,8.99
2023-01-20T08:01:22.504Z,8.17
2023-01-20T08:03:50.349Z,8.63
2023-01-20T08:06:19.730Z,8.39
2023-01-20T08:08:47.452Z,7.60
2023-01-20T08:11:15.847Z,7.68
2023-01-20T08:13:43.526Z,7.77
2023-01-20T08:16:12.578Z,6.74
2023-01-20T08:18:40.522Z,6.52
2023-01-20T08:21:15.350Z,6.58
2023-01-20T08:23:43.040Z,6.80
2023-01-20T08:26:10.694Z,6.20
2023-01-20T08:28:38.414Z,6.14
2023-01-20T08:31:09.752Z,6.04
2023-01-20T08:33:37.809Z,5.98
2023-01-20T08:36:27.101Z,6.05
2023-01-20T08:38:56.335Z,5.81
2023-01-20T08:41:30.034Z,6.22
2023-01-20T08:44:01.296Z,6.45
2023-01-20T08:46:29.150Z,6.74
2023-01-20T08:48:56.964Z,6.38
2023-01-20T08:51:27.004Z,6.40
2023-01-20T08:53:54.822Z,6.76
2023-01-20T08:56:24.103Z,7.11
2023-01-20T08:58:52.005Z,6.99
2023-01-20T09:01:21.393Z,6.86
2023-01-20T09:04:04.197Z,6.26
2023-01-20T09:06:46.344Z,6.88
2023-01-20T09:09:14.901Z,6.13
2023-01-20T09:11:44.972Z,5.97
2023-01-20T09:14:12.781Z,5.63
2023-01-20T09:16:40.498Z,5.49
2023-01-20T09:19:08.202Z,5.45
2023-01-20T09:21:36.015Z,5.30
2023-01-20T09:24:03.904Z,5.57
2023-01-20T09:26:38.374Z,5.40
2023-01-20T09:29:13.172Z,5.53
2023-01-20T09:31:45.564Z,5.72
2023-01-20T09:34:19.279Z,5.76
2023-01-20T09:36:54.116Z,5.58
2023-01-20T09:39:40.464Z,6.00
2023-01-20T09:42:51.260Z,5.69
2023-01-20T09:45:32.961Z,6.02
2023-01-20T09:48:34.707Z,7.04
2023-01-20T09:51:22.576Z,7.51
2023-01-20T09:54:29.357Z,7.57
2023-01-20T09:57:00.384Z,7.33
2023-01-20T09:59:33.555Z,8.28
2023-01-20T10:02:04.541Z,8.22
2023-01-20T10:04:39.889Z,7.66
2023-01-20T10:07:24.704Z,8.71
2023-01-20T10:10:22.392Z,8.78
2023-01-20T10:13:23.383Z,8.31
2023-01-20T10:15:54.202Z,8.36
2023-01-20T10:18:34.083Z,8.70
2023-01-20T10:21:36.040Z,9.34
2023-01-20T10:24:29.550Z,9.69
2023-01-20T10:27:03.912Z,9.84
2023-01-20T10:29:38.188Z,9.70
2023-01-20T10:32:33.824Z,9.54
2023-01-20T10:35:16.050Z,9.26
2023-01-20T10:37:44.219Z,8.57
2023-01-20T10:40:15.490Z,9.44
2023-01-20T10:42:48.262Z,8.86
2023-01-20T10:45:20.472Z,8.89
2023-01-20T10:47:55.968Z,9.30
2023-01-20T10:50:31.942Z,9.56
2023-01-20T10:53:21.572Z,9.32
2023-01-20T10:55:58.185Z,9.37
2023-01-20T10:58:26.555Z,9.32
2023-01-20T11:00:54.709Z,9.53
2023-01-20T11:03:22.928Z,9.57
2023-01-20T11:05:51.606Z,9.67
2023-01-20T11:08:28.705Z,9.79
2023-01-20T11:11:01.011Z,9.84
2023-01-20T11:13:28.733Z,10.43
2023-01-20T11:15:58.959Z,10.44
2023-01-20T11:18:28.595Z,10.70
2023-01-20T11:21:26.220Z,10.82
2023-01-20T11:23:58.083Z,10.87
2023-01-20T11:26:36.227Z,10.77
2023-01-20T11:29:27.392Z,11.15
2023-01-20T11:31:55.678Z,11.21
2023-01-20T11:34:24.305Z,10.74
2023-01-20T11:37:13.045Z,10.74
2023-01-20T11:39:49.986Z,11.51
2023-01-20T11:42:22.403Z,11.61
2023-01-20T11:45:08.554Z,10.96
2023-01-20T11:47:45.793Z,10.63
2023-01-20T11:50:28.801Z,10.26
2023-01-20T11:53:12.215Z,10.67
2023-01-20T11:55:46.736Z,10.35
2023-01-20T11:58:19.679Z,10.67
2023-01-20T12:00:47.590Z,11.53
2023-01-20T12:03:50.908Z,11.25
2023-01-20T12:06:29.117Z,10.60
2023-01-20T12:09:01.445Z,11.41
2023-01-20T12:11:56.626Z,11.92
2023-01-20T12:14:39.349Z,11.94
2023-01-20T12:17:36.634Z,11.97
2023-01-20T12:20:23.712Z,11.97
2023-01-20T12:23:21.568Z,12.03
2023-01-20T12:26:10.792Z,12.02
2023-01-20T12:28:49.142Z,11.81
2023-01-20T12:31:20.233Z,12.26
2023-01-20T12:33:49.539Z,11.59
2023-01-20T12:36:45.108Z,11.43
2023-01-20T12:39:37.371Z,11.54
2023-01-20T12:42:10.755Z,11.27
2023-01-20T12:44:58.166Z,11.75
2023-01-20T12:47:44.367Z,12.12
2023-01-20T12:50:33.284Z,12.11
2023-01-20T12:53:27.877Z,12.44
2023-01-20T12:56:37.260Z,12.43
2023-01-20T12:59:20.143Z,12.00
2023-01-20T13:01:55.040Z,10.41
2023-01-20T13:04:25.679Z,10.36
2023-01-20T13:06:53.300Z,10.52
2023-01-20T13:09:30.846Z,9.03
2023-01-20T13:12:36.166Z,7.24
2023-01-20T13:15:32.947Z,6.67
2023-01-20T13:18:17.981Z,7.00
2023-01-20T13:20:45.764Z,6.91
2023-01-20T13:23:31.274Z,6.38
2023-01-20T13:25:59.259Z,6.07
2023-01-20T13:28:28.856Z,5.60
2023-01-20T13:31:00.452Z,6.36
2023-01-20T13:33:34.353Z,6.73
2023-01-20T13:36:22.706Z,7.04
2023-01-20T13:38:51.727Z,6.84
2023-01-20T13:41:47.611Z,6.13
2023-01-20T13:44:41.524Z,6.50
2023-01-20T13:47:10.596Z,6.84
2023-01-20T13:49:44.404Z,6.32
2023-01-20T13:52:12.249Z,5.85
2023-01-20T13:54:44.721Z,6.02
2023-01-20T13:57:27.913Z,6.63
2023-01-20T13:59:56.025Z,7.07
2023-01-20T14:02:28.960Z,7.41
2023-01-20T14:04:58.759Z,7.63
2023-01-20T14:07:27.762Z,7.94
2023-01-20T14:09:56.413Z,7.89
2023-01-20T14:12:24.260Z,8.38
2023-01-20T14:14:52.257Z,8.60
2023-01-20T14:17:21.842Z,8.88
2023-01-20T14:19:50.707Z,8.41
2023-01-20T14:22:26.026Z,8.69
2023-01-20T14:24:57.288Z,8.16
2023-01-20T14:27:31.964Z,8.05
2023-01-20T14:30:20.162Z,7.79
2023-01-20T14:32:47.927Z,7.95
2023-01-20T14:35:44.993Z,8.09
2023-01-20T14:38:18.666Z,8.13
2023-01-20T14:40:46.403Z,7.18
2023-01-20T14:43:22.495Z,7.56
2023-01-20T14:45:53.921Z,7.99
2023-01-20T14:48:33.402Z,7.56
2023-01-20T14:51:04.213Z,7.22
2023-01-20T14:53:32.058Z,7.75
2023-01-20T14:56:09.747Z,7.50
2023-01-20T14:58:37.517Z,7.43
2023-01-20T15:01:05.839Z,7.30
2023-01-20T15:03:33.671Z,6.83
2023-01-20T15:06:10.242Z,7.07
2023-01-20T15:08:37.867Z,5.42
2023-01-20T15:11:16.985Z,6.07
2023-01-20T15:14:02.787Z,6.20
2023-01-20T15:16:31.192Z,4.89
2023-01-20T15:19:14.559Z,5.68
2023-01-20T15:21:52.388Z,6.07
2023-01-20T15:24:30.702Z,6.79
2023-01-20T15:27:00.236Z,6.90
2023-01-20T15:29:29.349Z,7.17
2023-01-20T15:31:58.465Z,7.33
2023-01-20T15:34:26.568Z,6.73
2023-01-20T15:36:54.985Z,6.38
2023-01-20T15:39:24.286Z,6.08
2023-01-20T15:41:54.927Z,5.16
2023-01-20T15:44:24.306Z,5.56
2023-01-20T15:46:52.137Z,4.96
2023-01-20T15:49:19.985Z,4.32
2023-01-20T15:51:47.642Z,4.71
2023-01-20T15:54:15.397Z,4.10
2023-01-20T15:56:43.362Z,3.98
2023-01-20T15:59:17.405Z,4.04
2023-01-20T16:01:50.282Z,4.14
2023-01-20T16:04:18.349Z,3.87
2023-01-20T16:06:46.019Z,4.13
2023-01-20T16:09:27.065Z,3.81
2023-01-20T16:11:54.815Z,3.59
2023-01-20T16:14:22.506Z,3.70
2023-01-20T16:16:50.228Z,3.73
2023-01-20T16:19:17.948Z,4.03
2023-01-20T16:21:45.896Z,3.56
2023-01-20T16:24:13.731Z,3.74
2023-01-20T16:26:41.451Z,3.95
2023-01-20T16:29:09.383Z,4.36
2023-01-20T16:31:37.246Z,3.98
2023-01-20T16:34:05.395Z,4.30
2023-01-20T16:36:33.169Z,5.14
2023-01-20T16:39:00.869Z,5.27
2023-01-20T16:41:30.497Z,4.96
2023-01-20T16:43:58.570Z,5.62
2023-01-20T16:46:28.086Z,6.06
2023-01-20T16:48:59.674Z,5.85
2023-01-20T16:51:28.196Z,5.91
2023-01-20T16:53:56.146Z,6.19
2023-01-20T16:56:25.643Z,5.98
2023-01-20T16:58:54.446Z,5.69
2023-01-20T17:01:24.669Z,5.76
2023-01-20T17:03:53.764Z,5.77
2023-01-20T17:06:22.949Z,5.63
2023-01-20T17:08:52.004Z,4.30
2023-01-20T17:11:30.096Z,4.57
2023-01-20T17:13:58.016Z,4.84
2023-01-20T17:16:26.284Z,4.52
2023-01-20T17:18:55.242Z,4.13
2023-01-20T17:21:23.434Z,4.16
2023-01-20T17:23:52.313Z,4.08
2023-01-20T17:26:20.139Z,4.32
2023-01-20T17:28:47.925Z,4.31
2023-01-20T17:31:15.664Z,4.40
2023-01-20T17:33:46.739Z,4.66
2023-01-20T17:36:16.701Z,4.49
2023-01-20T17:38:44.485Z,4.50
2023-01-20T17:41:12.773Z,5.57
2023-01-20T17:43:41.928Z,4.76
2023-01-20T17:46:16.083Z,5.02
2023-01-20T17:48:44.156Z,5.27
2023-01-20T17:51:13.581Z,5.36
2023-01-20T17:53:41.473Z,5.28
2023-01-20T17:56:12.824Z,5.17
2023-01-20T17:58:41.885Z,5.76
2023-01-20T18:01:30.322Z,4.63
2023-01-20T18:04:04.478Z,4.65
2023-01-20T18:06:35.321Z,4.66
2023-01-20T18:09:03.812Z,4.03
2023-01-20T18:11:32.769Z,4.34
2023-01-20T18:14:00.812Z,5.23
2023-01-20T18:16:39.047Z,4.83
2023-01-20T18:19:07.136Z,4.88
2023-01-20T18:21:35.976Z,3.71
2023-01-20T18:24:04.865Z,4.11
2023-01-20T18:26:33.246Z,3.95
2023-01-20T18:29:02.763Z,3.98
2023-01-20T18:31:30.899Z,4.33
2023-01-20T18:34:00.228Z,4.48
2023-01-20T18:36:28.762Z,4.36
2023-01-20T18:38:58.179Z,4.74
2023-01-20T18:41:26.899Z,4.17
2023-01-20T18:43:55.126Z,4.38
2023-01-20T18:46:23.200Z,5.11
2023-01-20T18:48:53.411Z,4.79
2023-01-20T18:51:26.384Z,4.44
2023-01-20T18:54:07.735Z,4.40
2023-01-20T18:56:35.525Z,5.01
2023-01-20T18:59:03.962Z,4.54
2023-01-20T19:01:33.896Z,4.46
2023-01-20T19:04:02.604Z,4.72
2023-01-20T19:06:32.119Z,4.96
2023-01-20T19:08:59.974Z,4.98
2023-01-20T19:11:29.699Z,5.15
2023-01-20T19:13:57.572Z,5.10
2023-01-20T19:16:26.787Z,4.55
2023-01-20T19:18:59.044Z,4.34
2023-01-20T19:21:27.269Z,4.88
2023-01-20T19:23:56.005Z,4.84
2023-01-20T19:26:24.748Z,3.34
2023-01-20T19:29:02.325Z,3.25
2023-01-20T19:31:31.227Z,3.07
2023-01-20T19:33:59.066Z,3.04
2023-01-20T19:36:26.886Z,3.21
2023-01-20T19:38:54.566Z,3.60
2023-01-20T19:41:25.664Z,3.38
2023-01-20T19:43:57.376Z,3.93
2023-01-20T19:46:27.009Z,3.53
2023-01-20T19:48:56.079Z,3.72
2023-01-20T19:51:24.107Z,4.02
2023-01-20T19:53:57.926Z,3.73
2023-01-20T19:56:27.503Z,3.50
2023-01-20T19:58:55.260Z,3.87
2023-01-20T20:01:23.956Z,3.76
2023-01-20T20:03:52.077Z,3.96
2023-01-20T20:06:30.583Z,3.99
2023-01-20T20:09:03.138Z,3.76
2023-01-20T20:11:30.982Z,3.83
2023-01-20T20:14:00.133Z,4.19
2023-01-20T20:16:29.294Z,4.14
2023-01-20T20:18:57.043Z,3.96
2023-01-20T20:21:24.930Z,3.51
2023-01-20T20:23:53.947Z,4.10
2023-01-20T20:26:22.934Z,3.87
2023-01-20T20:28:53.483Z,4.10
2023-01-20T20:31:22.435Z,3.45
2023-01-20T20:33:50.172Z,3.51
2023-01-20T20:36:17.978Z,3.09
2023-01-20T20:38:48.956Z,3.50
2023-01-20T20:41:18.737Z,3.30
2023-01-20T20:43:46.476Z,2.40
2023-01-20T20:46:15.470Z,2.19
2023-01-20T20:48:43.181Z,2.21
2023-01-20T20:51:13.261Z,2.33
2023-01-20T20:53:41.047Z,1.77
2023-01-20T20:56:10.486Z,1.86
2023-01-20T20:58:59.531Z,1.92
2023-01-20T21:01:28.816Z,2.31
2023-01-20T21:03:57.960Z,1.99
2023-01-20T21:06:26.157Z,2.05
2023-01-20T21:08:53.968Z,1.46
2023-01-20T21:11:21.750Z,1.67
2023-01-20T21:13:49.734Z,1.21
2023-01-20T21:16:20.665Z,0.80
2023-01-20T21:18:49.163Z,1.05
2023-01-20T21:21:19.720Z,1.61
2023-01-20T21:23:49.007Z,1.82
2023-01-20T21:26:16.775Z,1.61
2023-01-20T21:28:44.585Z,1.92
2023-01-20T21:31:13.414Z,2.00
2023-01-20T21:33:41.633Z,2.39
2023-01-20T21:36:09.857Z,2.68
2023-01-20T21:38:37.624Z,2.14
2023-01-20T21:41:09.978Z,2.08
2023-01-20T21:43:57.575Z,2.30
2023-01-20T21:46:26.168Z,2.30
2023-01-20T21:49:12.412Z,1.30
2023-01-20T21:51:58.776Z,0.71
2023-01-20T21:54:30.269Z,0.93
2023-01-20T21:56:58.488Z,1.36
2023-01-20T21:59:26.205Z,1.36
2023-01-20T22:01:54.349Z,1.62
2023-01-20T22:04:22.067Z,1.44
2023-01-20T22:06:49.872Z,2.06
2023-01-20T22:09:17.622Z,2.04
2023-01-20T22:11:45.391Z,0.69
2023-01-20T22:14:13.165Z,1.20
2023-01-20T22:16:40.921Z,1.34
2023-01-20T22:19:08.588Z,0.86
2023-01-20T22:21:36.395Z,0.20
2023-01-20T22:24:04.297Z,0.91
2023-01-20T22:26:32.088Z,1.34
2023-01-20T22:28:59.792Z,1.58
2023-01-20T22:31:28.602Z,1.57
2023-01-20T22:33:57.757Z,1.92
2023-01-20T22:36:25.555Z,2.08
2023-01-20T22:38:53.275Z,1.42
2023-01-20T22:41:21.267Z,1.26
2023-01-20T22:43:50.497Z,1.54
2023-01-20T22:46:20.378Z,1.62
2023-01-20T22:48:48.333Z,2.03
2023-01-20T22:51:20.699Z,0.72
2023-01-20T22:53:48.551Z,0.89
2023-01-20T22:56:18.553Z,0.71
2023-01-20T22:58:46.294Z,0.73
2023-01-20T23:01:17.574Z,1.06
2023-01-20T23:03:45.591Z,1.49
2023-01-20T23:06:14.070Z,1.62
2023-01-20T23:08:41.974Z,1.86
2023-01-20T23:11:11.332Z,1.86
2023-01-20T23:13:39.185Z,1.49
2023-01-20T23:16:09.975Z,1.33
2023-01-20T23:18:37.810Z,1.09
2023-01-20T23:21:06.018Z,0.83
2023-01-20T23:23:34.878Z,0.81
2023-01-20T23:26:14.530Z,1.23
2023-01-20T23:28:43.148Z,1.73
2023-01-20T23:31:12.262Z,1.74
2023-01-20T23:33:41.889Z,1.98
2023-01-20T23:36:19.589Z,2.47
2023-01-20T23:38:47.506Z,2.21
2023-01-20T23:41:15.242Z,2.62
2023-01-20T23:43:43.064Z,2.56
2023-01-20T23:46:11.086Z,2.14
2023-01-20T23:48:38.795Z,1.67
2023-01-20T23:51:06.947Z,0.73
2023-01-20T23:53:37.982Z,1.53
2023-01-20T23:56:07.733Z,1.70
2023-01-20T23:58:35.441Z,1.92
